sensor_id;sensor_type;location;lat;lon;timestamp;temperature;humidity
48579;DHT22;34357;51.948;6.132;2022-12-18T00:03:42;-5.10;91.00
48579;DHT22;34357;51.948;6.132;2022-12-18T00:06:08;-5.10;90.90
48579;DHT22;34357;51.948;6.132;2022-12-18T00:08:35;-5.10;90.90
48579;DHT22;34357;51.948;6.132;2022-12-18T00:11:04;-5.20;90.70
48579;DHT22;34357;51.948;6.132;2022-12-18T00:13:31;-5.20;90.70
48579;DHT22;34357;51.948;6.132;2022-12-18T00:16:02;-5.20;90.70
48579;DHT22;34357;51.948;6.132;2022-12-18T00:18:28;-5.30;90.50
48579;DHT22;34357;51.948;6.132;2022-12-18T00:20:53;-5.30;90.50
48579;DHT22;34357;51.948;6.132;2022-12-18T00:23:19;-5.30;90.50
48579;DHT22;34357;51.948;6.132;2022-12-18T00:25:45;-5.30;90.50
48579;DHT22;34357;51.948;6.132;2022-12-18T00:28:10;-5.40;90.30
48579;DHT22;34357;51.948;6.132;2022-12-18T00:30:36;-5.50;90.10
48579;DHT22;34357;51.948;6.132;2022-12-18T00:33:02;-5.50;90.00
48579;DHT22;34357;51.948;6.132;2022-12-18T00:35:27;-5.60;90.00
48579;DHT22;34357;51.948;6.132;2022-12-18T00:37:53;-5.60;90.20
48579;DHT22;34357;51.948;6.132;2022-12-18T00:40:19;-5.60;90.10
48579;DHT22;34357;51.948;6.132;2022-12-18T00:42:44;-5.60;90.20
48579;DHT22;34357;51.948;6.132;2022-12-18T00:45:27;-5.60;90.20
48579;DHT22;34357;51.948;6.132;2022-12-18T00:47:53;-5.60;90.10
48579;DHT22;34357;51.948;6.132;2022-12-18T00:50:20;-5.70;90.00
48579;DHT22;34357;51.948;6.132;2022-12-18T00:52:46;-5.70;90.00
48579;DHT22;34357;51.948;6.132;2022-12-18T00:55:12;-5.70;90.00
48579;DHT22;34357;51.948;6.132;2022-12-18T00:57:38;-5.70;89.80
48579;DHT22;34357;51.948;6.132;2022-12-18T01:00:07;-5.80;89.60
48579;DHT22;34357;51.948;6.132;2022-12-18T01:02:34;-5.80;89.60
48579;DHT22;34357;51.948;6.132;2022-12-18T01:05:00;-5.90;89.50
48579;DHT22;34357;51.948;6.132;2022-12-18T01:07:26;-5.90;89.40
48579;DHT22;34357;51.948;6.132;2022-12-18T01:09:52;-5.90;89.70
48579;DHT22;34357;51.948;6.132;2022-12-18T01:12:18;-5.90;89.60
48579;DHT22;34357;51.948;6.132;2022-12-18T01:14:43;-5.90;89.60
48579;DHT22;34357;51.948;6.132;2022-12-18T01:17:09;-5.90;89.60
48579;DHT22;34357;51.948;6.132;2022-12-18T01:19:35;-6.00;89.50
48579;DHT22;34357;51.948;6.132;2022-12-18T01:22:02;-6.00;89.20
48579;DHT22;34357;51.948;6.132;2022-12-18T01:24:28;-6.10;89.20
48579;DHT22;34357;51.948;6.132;2022-12-18T01:26:54;-6.10;89.30
48579;DHT22;34357;51.948;6.132;2022-12-18T01:29:20;-6.10;89.30
48579;DHT22;34357;51.948;6.132;2022-12-18T01:31:46;-6.10;89.20
48579;DHT22;34357;51.948;6.132;2022-12-18T01:34:13;-6.10;89.50
48579;DHT22;34357;51.948;6.132;2022-12-18T01:36:40;-6.00;89.70
48579;DHT22;34357;51.948;6.132;2022-12-18T01:39:12;-5.90;89.80
48579;DHT22;34357;51.948;6.132;2022-12-18T01:41:41;-5.80;89.90
48579;DHT22;34357;51.948;6.132;2022-12-18T01:47:43;-6.00;89.50
48579;DHT22;34357;51.948;6.132;2022-12-18T01:52:42;-6.10;89.20
48579;DHT22;34357;51.948;6.132;2022-12-18T01:55:09;-6.00;89.20
48579;DHT22;34357;51.948;6.132;2022-12-18T01:57:36;-6.00;89.20
48579;DHT22;34357;51.948;6.132;2022-12-18T02:00:13;-6.00;89.00
48579;DHT22;34357;51.948;6.132;2022-12-18T02:02:41;-6.10;88.80
48579;DHT22;34357;51.948;6.132;2022-12-18T02:05:10;-6.20;88.90
48579;DHT22;34357;51.948;6.132;2022-12-18T02:07:53;-6.10;89.00
48579;DHT22;34357;51.948;6.132;2022-12-18T02:15:40;-6.00;89.40
48579;DHT22;34357;51.948;6.132;2022-12-18T02:18:24;-5.80;89.80
48579;DHT22;34357;51.948;6.132;2022-12-18T02:21:02;-5.50;90.00
48579;DHT22;34357;51.948;6.132;2022-12-18T02:26:32;-5.00;89.90
48579;DHT22;34357;51.948;6.132;2022-12-18T02:29:04;-5.00;89.60
48579;DHT22;34357;51.948;6.132;2022-12-18T02:31:40;-4.90;89.40
48579;DHT22;34357;51.948;6.132;2022-12-18T02:34:09;-5.00;89.20
48579;DHT22;34357;51.948;6.132;2022-12-18T02:36:39;-5.00;89.10
48579;DHT22;34357;51.948;6.132;2022-12-18T02:39:09;-5.00;89.00
48579;DHT22;34357;51.948;6.132;2022-12-18T02:41:39;-5.00;88.90
48579;DHT22;34357;51.948;6.132;2022-12-18T02:44:10;-5.00;89.00
48579;DHT22;34357;51.948;6.132;2022-12-18T02:46:39;-5.00;88.90
48579;DHT22;34357;51.948;6.132;2022-12-18T02:49:22;-5.00;88.90
48579;DHT22;34357;51.948;6.132;2022-12-18T02:51:56;-5.00;88.90
48579;DHT22;34357;51.948;6.132;2022-12-18T02:57:47;-5.00;88.90
48579;DHT22;34357;51.948;6.132;2022-12-18T03:00:19;-5.00;88.80
48579;DHT22;34357;51.948;6.132;2022-12-18T03:05:45;-5.00;88.70
48579;DHT22;34357;51.948;6.132;2022-12-18T03:08:18;-5.00;88.70
48579;DHT22;34357;51.948;6.132;2022-12-18T03:11:08;-4.90;88.70
48579;DHT22;34357;51.948;6.132;2022-12-18T03:16:17;-5.10;88.50
48579;DHT22;34357;51.948;6.132;2022-12-18T03:19:05;-5.10;88.60
48579;DHT22;34357;51.948;6.132;2022-12-18T03:21:40;-5.10;88.50
48579;DHT22;34357;51.948;6.132;2022-12-18T03:24:07;-5.20;88.50
48579;DHT22;34357;51.948;6.132;2022-12-18T03:26:35;-5.20;88.60
48579;DHT22;34357;51.948;6.132;2022-12-18T03:29:08;-5.20;88.70
48579;DHT22;34357;51.948;6.132;2022-12-18T03:31:37;-5.30;88.70
48579;DHT22;34357;51.948;6.132;2022-12-18T03:34:09;-5.40;88.70
48579;DHT22;34357;51.948;6.132;2022-12-18T03:36:45;-5.40;88.70
48579;DHT22;34357;51.948;6.132;2022-12-18T03:39:13;-5.50;88.70
48579;DHT22;34357;51.948;6.132;2022-12-18T03:41:52;-5.60;88.70
48579;DHT22;34357;51.948;6.132;2022-12-18T03:44:30;-5.60;88.50
48579;DHT22;34357;51.948;6.132;2022-12-18T03:47:06;-5.80;88.50
48579;DHT22;34357;51.948;6.132;2022-12-18T03:52:42;-5.80;88.80
48579;DHT22;34357;51.948;6.132;2022-12-18T03:55:11;-5.80;88.90
48579;DHT22;34357;51.948;6.132;2022-12-18T03:57:39;-6.00;88.80
48579;DHT22;34357;51.948;6.132;2022-12-18T04:00:10;-6.00;88.80
48579;DHT22;34357;51.948;6.132;2022-12-18T04:02:43;-6.10;88.80
48579;DHT22;34357;51.948;6.132;2022-12-18T04:05:13;-6.10;88.70
48579;DHT22;34357;51.948;6.132;2022-12-18T04:07:42;-6.10;88.80
48579;DHT22;34357;51.948;6.132;2022-12-18T04:10:14;-6.10;88.90
48579;DHT22;34357;51.948;6.132;2022-12-18T04:12:40;-6.20;88.90
48579;DHT22;34357;51.948;6.132;2022-12-18T04:15:10;-6.20;88.90
48579;DHT22;34357;51.948;6.132;2022-12-18T04:17:37;-6.30;88.90
48579;DHT22;34357;51.948;6.132;2022-12-18T04:20:04;-6.30;88.80
48579;DHT22;34357;51.948;6.132;2022-12-18T04:22:30;-6.30;88.90
48579;DHT22;34357;51.948;6.132;2022-12-18T04:24:58;-6.30;88.90
48579;DHT22;34357;51.948;6.132;2022-12-18T04:27:31;-6.30;88.90
48579;DHT22;34357;51.948;6.132;2022-12-18T04:29:58;-6.30;88.90
48579;DHT22;34357;51.948;6.132;2022-12-18T04:32:24;-6.30;88.90
48579;DHT22;34357;51.948;6.132;2022-12-18T04:34:50;-6.30;89.00
48579;DHT22;34357;51.948;6.132;2022-12-18T04:37:16;-6.40;88.90
48579;DHT22;34357;51.948;6.132;2022-12-18T04:39:42;-6.30;89.00
48579;DHT22;34357;51.948;6.132;2022-12-18T04:42:15;-6.30;89.10
48579;DHT22;34357;51.948;6.132;2022-12-18T04:44:40;-6.30;89.10
48579;DHT22;34357;51.948;6.132;2022-12-18T04:47:06;-6.20;89.10
48579;DHT22;34357;51.948;6.132;2022-12-18T04:49:33;-6.20;89.20
48579;DHT22;34357;51.948;6.132;2022-12-18T04:51:58;-6.20;89.10
48579;DHT22;34357;51.948;6.132;2022-12-18T04:54:24;-6.20;89.10
48579;DHT22;34357;51.948;6.132;2022-12-18T04:56:50;-6.20;89.20
48579;DHT22;34357;51.948;6.132;2022-12-18T04:59:16;-6.10;89.30
48579;DHT22;34357;51.948;6.132;2022-12-18T05:01:42;-5.90;89.50
48579;DHT22;34357;51.948;6.132;2022-12-18T05:04:08;-5.70;89.70
48579;DHT22;34357;51.948;6.132;2022-12-18T05:06:33;-5.60;89.60
48579;DHT22;34357;51.948;6.132;2022-12-18T05:08:59;-5.50;89.40
48579;DHT22;34357;51.948;6.132;2022-12-18T05:11:25;-5.60;89.20
48579;DHT22;34357;51.948;6.132;2022-12-18T05:13:50;-5.50;89.20
48579;DHT22;34357;51.948;6.132;2022-12-18T05:16:16;-5.40;89.30
48579;DHT22;34357;51.948;6.132;2022-12-18T05:18:42;-5.40;89.30
48579;DHT22;34357;51.948;6.132;2022-12-18T05:21:08;-5.40;89.30
48579;DHT22;34357;51.948;6.132;2022-12-18T05:23:37;-5.30;89.30
48579;DHT22;34357;51.948;6.132;2022-12-18T05:26:04;-5.20;89.20
48579;DHT22;34357;51.948;6.132;2022-12-18T05:28:32;-5.10;89.10
48579;DHT22;34357;51.948;6.132;2022-12-18T05:31:00;-5.10;89.00
48579;DHT22;34357;51.948;6.132;2022-12-18T05:33:29;-5.10;88.80
48579;DHT22;34357;51.948;6.132;2022-12-18T05:36:05;-5.10;88.70
48579;DHT22;34357;51.948;6.132;2022-12-18T05:38:33;-5.20;88.50
48579;DHT22;34357;51.948;6.132;2022-12-18T05:40:59;-5.30;88.30
48579;DHT22;34357;51.948;6.132;2022-12-18T05:43:26;-5.30;88.50
48579;DHT22;34357;51.948;6.132;2022-12-18T05:45:52;-5.10;88.70
48579;DHT22;34357;51.948;6.132;2022-12-18T05:48:19;-5.10;88.70
48579;DHT22;34357;51.948;6.132;2022-12-18T05:50:46;-5.10;88.60
48579;DHT22;34357;51.948;6.132;2022-12-18T05:53:13;-5.10;88.30
48579;DHT22;34357;51.948;6.132;2022-12-18T05:55:41;-5.20;88.20
48579;DHT22;34357;51.948;6.132;2022-12-18T05:58:08;-5.30;88.10
48579;DHT22;34357;51.948;6.132;2022-12-18T06:00:36;-5.40;88.20
48579;DHT22;34357;51.948;6.132;2022-12-18T06:03:09;-5.40;88.40
48579;DHT22;34357;51.948;6.132;2022-12-18T06:05:44;-5.50;88.40
48579;DHT22;34357;51.948;6.132;2022-12-18T06:08:12;-5.50;88.40
48579;DHT22;34357;51.948;6.132;2022-12-18T06:10:38;-5.50;88.40
48579;DHT22;34357;51.948;6.132;2022-12-18T06:13:06;-5.70;88.20
48579;DHT22;34357;51.948;6.132;2022-12-18T06:15:32;-5.80;88.20
48579;DHT22;34357;51.948;6.132;2022-12-18T06:17:59;-5.80;88.20
48579;DHT22;34357;51.948;6.132;2022-12-18T06:20:25;-5.90;88.30
48579;DHT22;34357;51.948;6.132;2022-12-18T06:22:51;-5.90;88.40
48579;DHT22;34357;51.948;6.132;2022-12-18T06:25:17;-5.90;88.60
48579;DHT22;34357;51.948;6.132;2022-12-18T06:27:43;-5.90;88.60
48579;DHT22;34357;51.948;6.132;2022-12-18T06:30:09;-6.00;88.50
48579;DHT22;34357;51.948;6.132;2022-12-18T06:32:35;-6.00;88.60
48579;DHT22;34357;51.948;6.132;2022-12-18T06:35:01;-6.00;88.60
48579;DHT22;34357;51.948;6.132;2022-12-18T06:37:27;-6.10;88.60
48579;DHT22;34357;51.948;6.132;2022-12-18T06:39:54;-6.10;88.60
48579;DHT22;34357;51.948;6.132;2022-12-18T06:42:23;-6.10;88.70
48579;DHT22;34357;51.948;6.132;2022-12-18T06:44:49;-6.10;88.60
48579;DHT22;34357;51.948;6.132;2022-12-18T06:47:15;-6.10;88.50
48579;DHT22;34357;51.948;6.132;2022-12-18T06:49:40;-6.10;88.70
48579;DHT22;34357;51.948;6.132;2022-12-18T06:52:06;-6.10;88.80
48579;DHT22;34357;51.948;6.132;2022-12-18T06:54:32;-6.00;89.00
48579;DHT22;34357;51.948;6.132;2022-12-18T06:56:57;-5.80;89.30
48579;DHT22;34357;51.948;6.132;2022-12-18T06:59:23;-5.50;89.60
48579;DHT22;34357;51.948;6.132;2022-12-18T07:01:49;-5.30;89.40
48579;DHT22;34357;51.948;6.132;2022-12-18T07:04:14;-5.30;89.10
48579;DHT22;34357;51.948;6.132;2022-12-18T07:06:40;-5.20;89.00
48579;DHT22;34357;51.948;6.132;2022-12-18T07:09:06;-5.10;89.00
48579;DHT22;34357;51.948;6.132;2022-12-18T07:11:34;-5.00;88.80
48579;DHT22;34357;51.948;6.132;2022-12-18T07:14:00;-4.90;88.90
48579;DHT22;34357;51.948;6.132;2022-12-18T07:16:26;-4.70;88.60
48579;DHT22;34357;51.948;6.132;2022-12-18T07:18:57;-4.60;88.40
48579;DHT22;34357;51.948;6.132;2022-12-18T07:21:24;-4.60;88.30
48579;DHT22;34357;51.948;6.132;2022-12-18T07:23:49;-4.40;88.10
48579;DHT22;34357;51.948;6.132;2022-12-18T07:26:17;-4.30;87.80
48579;DHT22;34357;51.948;6.132;2022-12-18T07:28:43;-4.20;87.50
48579;DHT22;34357;51.948;6.132;2022-12-18T07:31:12;-4.20;87.20
48579;DHT22;34357;51.948;6.132;2022-12-18T07:33:37;-4.10;87.20
48579;DHT22;34357;51.948;6.132;2022-12-18T07:36:05;-4.10;87.00
48579;DHT22;34357;51.948;6.132;2022-12-18T07:38:32;-4.10;87.00
48579;DHT22;34357;51.948;6.132;2022-12-18T07:41:05;-4.10;86.80
48579;DHT22;34357;51.948;6.132;2022-12-18T07:43:31;-4.10;87.00
48579;DHT22;34357;51.948;6.132;2022-12-18T07:45:57;-4.10;86.90
48579;DHT22;34357;51.948;6.132;2022-12-18T07:48:23;-4.00;87.00
48579;DHT22;34357;51.948;6.132;2022-12-18T07:50:49;-4.00;86.90
48579;DHT22;34357;51.948;6.132;2022-12-18T07:53:15;-4.10;86.80
48579;DHT22;34357;51.948;6.132;2022-12-18T07:55:41;-4.00;86.90
48579;DHT22;34357;51.948;6.132;2022-12-18T07:58:07;-4.00;86.70
48579;DHT22;34357;51.948;6.132;2022-12-18T08:00:33;-3.90;86.70
48579;DHT22;34357;51.948;6.132;2022-12-18T08:02:59;-3.80;86.40
48579;DHT22;34357;51.948;6.132;2022-12-18T08:05:25;-3.80;86.40
48579;DHT22;34357;51.948;6.132;2022-12-18T08:07:52;-3.80;86.40
48579;DHT22;34357;51.948;6.132;2022-12-18T08:10:18;-3.80;86.30
48579;DHT22;34357;51.948;6.132;2022-12-18T08:12:44;-3.80;86.40
48579;DHT22;34357;51.948;6.132;2022-12-18T08:15:10;-3.60;86.00
48579;DHT22;34357;51.948;6.132;2022-12-18T08:17:35;-3.60;85.80
48579;DHT22;34357;51.948;6.132;2022-12-18T08:20:01;-3.50;85.90
48579;DHT22;34357;51.948;6.132;2022-12-18T08:22:27;-3.70;86.00
48579;DHT22;34357;51.948;6.132;2022-12-18T08:24:52;-3.60;85.90
48579;DHT22;34357;51.948;6.132;2022-12-18T08:27:18;-3.50;85.80
48579;DHT22;34357;51.948;6.132;2022-12-18T08:29:44;-3.50;85.80
48579;DHT22;34357;51.948;6.132;2022-12-18T08:32:10;-3.40;85.50
48579;DHT22;34357;51.948;6.132;2022-12-18T08:34:35;-3.20;85.30
48579;DHT22;34357;51.948;6.132;2022-12-18T08:37:01;-3.20;85.00
48579;DHT22;34357;51.948;6.132;2022-12-18T08:39:27;-3.20;85.00
48579;DHT22;34357;51.948;6.132;2022-12-18T08:44:34;-3.10;84.80
48579;DHT22;34357;51.948;6.132;2022-12-18T08:47:04;-3.10;84.80
48579;DHT22;34357;51.948;6.132;2022-12-18T08:49:30;-3.10;84.70
48579;DHT22;34357;51.948;6.132;2022-12-18T08:51:56;-3.10;84.50
48579;DHT22;34357;51.948;6.132;2022-12-18T08:54:25;-3.10;84.60
48579;DHT22;34357;51.948;6.132;2022-12-18T08:56:51;-3.00;84.40
48579;DHT22;34357;51.948;6.132;2022-12-18T08:59:18;-3.00;84.10
48579;DHT22;34357;51.948;6.132;2022-12-18T09:01:44;-3.00;84.10
48579;DHT22;34357;51.948;6.132;2022-12-18T09:04:10;-3.00;84.30
48579;DHT22;34357;51.948;6.132;2022-12-18T09:06:36;-3.00;84.30
48579;DHT22;34357;51.948;6.132;2022-12-18T09:09:04;-3.00;84.50
48579;DHT22;34357;51.948;6.132;2022-12-18T09:11:30;-3.00;84.80
48579;DHT22;34357;51.948;6.132;2022-12-18T09:13:57;-3.00;84.40
48579;DHT22;34357;51.948;6.132;2022-12-18T09:16:25;-2.90;84.50
48579;DHT22;34357;51.948;6.132;2022-12-18T09:18:51;-2.80;84.40
48579;DHT22;34357;51.948;6.132;2022-12-18T09:21:20;-2.80;84.50
48579;DHT22;34357;51.948;6.132;2022-12-18T09:23:53;-2.70;84.30
48579;DHT22;34357;51.948;6.132;2022-12-18T09:26:19;-2.60;84.10
48579;DHT22;34357;51.948;6.132;2022-12-18T09:28:45;-2.50;83.60
48579;DHT22;34357;51.948;6.132;2022-12-18T09:31:16;-2.50;83.40
48579;DHT22;34357;51.948;6.132;2022-12-18T09:33:42;-2.40;83.10
48579;DHT22;34357;51.948;6.132;2022-12-18T09:36:09;-2.30;83.30
48579;DHT22;34357;51.948;6.132;2022-12-18T09:38:36;-2.30;83.40
48579;DHT22;34357;51.948;6.132;2022-12-18T09:44:25;-2.20;83.50
48579;DHT22;34357;51.948;6.132;2022-12-18T09:49:29;-2.10;82.90
48579;DHT22;34357;51.948;6.132;2022-12-18T09:52:02;-2.00;82.80
48579;DHT22;34357;51.948;6.132;2022-12-18T09:54:56;-2.00;82.60
48579;DHT22;34357;51.948;6.132;2022-12-18T09:57:25;-1.90;82.00
48579;DHT22;34357;51.948;6.132;2022-12-18T10:00:02;-1.90;82.30
48579;DHT22;34357;51.948;6.132;2022-12-18T10:02:37;-1.80;82.30
48579;DHT22;34357;51.948;6.132;2022-12-18T10:05:15;-1.80;82.10
48579;DHT22;34357;51.948;6.132;2022-12-18T10:08:07;-1.80;82.00
48579;DHT22;34357;51.948;6.132;2022-12-18T10:13:37;-1.70;82.00
48579;DHT22;34357;51.948;6.132;2022-12-18T10:26:53;-1.70;81.40
48579;DHT22;34357;51.948;6.132;2022-12-18T10:29:21;-1.60;81.00
48579;DHT22;34357;51.948;6.132;2022-12-18T10:31:47;-1.60;81.10
48579;DHT22;34357;51.948;6.132;2022-12-18T10:34:16;-1.50;81.00
48579;DHT22;34357;51.948;6.132;2022-12-18T10:36:42;-1.50;81.10
48579;DHT22;34357;51.948;6.132;2022-12-18T10:39:34;-1.40;80.90
48579;DHT22;34357;51.948;6.132;2022-12-18T10:42:29;-1.40;81.00
48579;DHT22;34357;51.948;6.132;2022-12-18T10:45:21;-1.30;81.00
48579;DHT22;34357;51.948;6.132;2022-12-18T10:47:50;-1.30;80.80
48579;DHT22;34357;51.948;6.132;2022-12-18T10:50:33;-1.20;80.60
48579;DHT22;34357;51.948;6.132;2022-12-18T10:53:01;-1.20;80.70
48579;DHT22;34357;51.948;6.132;2022-12-18T10:55:37;-1.10;80.40
48579;DHT22;34357;51.948;6.132;2022-12-18T10:58:25;-1.10;79.70
48579;DHT22;34357;51.948;6.132;2022-12-18T11:01:17;-1.10;79.50
48579;DHT22;34357;51.948;6.132;2022-12-18T11:03:51;-1.10;79.60
48579;DHT22;34357;51.948;6.132;2022-12-18T11:06:24;-1.00;79.60
48579;DHT22;34357;51.948;6.132;2022-12-18T11:09:02;-1.00;79.50
48579;DHT22;34357;51.948;6.132;2022-12-18T11:11:28;-1.00;78.90
48579;DHT22;34357;51.948;6.132;2022-12-18T11:16:23;-0.90;78.90
48579;DHT22;34357;51.948;6.132;2022-12-18T11:18:49;-0.80;79.00
48579;DHT22;34357;51.948;6.132;2022-12-18T11:21:15;-0.80;79.40
48579;DHT22;34357;51.948;6.132;2022-12-18T11:23:52;-0.70;79.20
48579;DHT22;34357;51.948;6.132;2022-12-18T11:26:19;-0.70;79.20
48579;DHT22;34357;51.948;6.132;2022-12-18T11:28:50;-0.70;79.20
48579;DHT22;34357;51.948;6.132;2022-12-18T11:31:22;-0.60;79.40
48579;DHT22;34357;51.948;6.132;2022-12-18T11:33:56;-0.60;79.50
48579;DHT22;34357;51.948;6.132;2022-12-18T11:36:22;-0.60;79.70
48579;DHT22;34357;51.948;6.132;2022-12-18T11:38:49;-0.60;78.90
48579;DHT22;34357;51.948;6.132;2022-12-18T11:41:27;-0.60;79.20
48579;DHT22;34357;51.948;6.132;2022-12-18T11:44:25;-0.50;79.30
48579;DHT22;34357;51.948;6.132;2022-12-18T11:46:56;-0.50;78.00
48579;DHT22;34357;51.948;6.132;2022-12-18T11:49:34;-0.40;78.00
48579;DHT22;34357;51.948;6.132;2022-12-18T11:52:21;-0.40;77.40
48579;DHT22;34357;51.948;6.132;2022-12-18T11:54:52;-0.30;77.20
48579;DHT22;34357;51.948;6.132;2022-12-18T11:57:36;-0.30;77.00
48579;DHT22;34357;51.948;6.132;2022-12-18T12:00:13;-0.30;76.90
48579;DHT22;34357;51.948;6.132;2022-12-18T12:08:41;-0.20;76.30
48579;DHT22;34357;51.948;6.132;2022-12-18T12:24:10;0.00;75.40
48579;DHT22;34357;51.948;6.132;2022-12-18T12:35:12;0.00;75.60
48579;DHT22;34357;51.948;6.132;2022-12-18T12:38:05;0.00;75.40
48579;DHT22;34357;51.948;6.132;2022-12-18T12:40:36;0.00;75.50
48579;DHT22;34357;51.948;6.132;2022-12-18T12:43:07;0.00;75.20
48579;DHT22;34357;51.948;6.132;2022-12-18T12:45:48;0.00;75.00
48579;DHT22;34357;51.948;6.132;2022-12-18T12:48:45;0.00;75.40
48579;DHT22;34357;51.948;6.132;2022-12-18T12:53:45;0.00;75.80
48579;DHT22;34357;51.948;6.132;2022-12-18T12:56:14;0.00;75.70
48579;DHT22;34357;51.948;6.132;2022-12-18T13:09:20;0.00;75.60
48579;DHT22;34357;51.948;6.132;2022-12-18T13:11:46;0.00;75.50
48579;DHT22;34357;51.948;6.132;2022-12-18T13:19:44;0.00;75.70
48579;DHT22;34357;51.948;6.132;2022-12-18T13:22:25;0.00;75.70
48579;DHT22;34357;51.948;6.132;2022-12-18T13:24:53;0.00;75.70
48579;DHT22;34357;51.948;6.132;2022-12-18T13:27:46;0.00;75.80
48579;DHT22;34357;51.948;6.132;2022-12-18T13:38:24;0.00;76.20
48579;DHT22;34357;51.948;6.132;2022-12-18T13:41:01;0.00;75.40
48579;DHT22;34357;51.948;6.132;2022-12-18T13:43:39;0.00;76.20
48579;DHT22;34357;51.948;6.132;2022-12-18T13:46:20;0.00;75.50
48579;DHT22;34357;51.948;6.132;2022-12-18T13:48:56;0.00;75.60
48579;DHT22;34357;51.948;6.132;2022-12-18T13:51:23;0.00;75.70
48579;DHT22;34357;51.948;6.132;2022-12-18T13:53:52;0.00;75.70
48579;DHT22;34357;51.948;6.132;2022-12-18T13:56:30;0.00;75.30
48579;DHT22;34357;51.948;6.132;2022-12-18T13:59:21;0.00;75.60
48579;DHT22;34357;51.948;6.132;2022-12-18T14:01:53;0.00;76.10
48579;DHT22;34357;51.948;6.132;2022-12-18T14:04:49;0.00;75.90
48579;DHT22;34357;51.948;6.132;2022-12-18T14:07:23;0.00;75.50
48579;DHT22;34357;51.948;6.132;2022-12-18T14:09:53;0.00;76.20
48579;DHT22;34357;51.948;6.132;2022-12-18T14:12:24;0.00;76.00
48579;DHT22;34357;51.948;6.132;2022-12-18T14:15:27;0.00;76.30
48579;DHT22;34357;51.948;6.132;2022-12-18T14:20:30;0.00;75.80
48579;DHT22;34357;51.948;6.132;2022-12-18T14:22:57;0.00;76.50
48579;DHT22;34357;51.948;6.132;2022-12-18T14:25:27;0.00;76.50
48579;DHT22;34357;51.948;6.132;2022-12-18T14:30:42;0.00;75.90
48579;DHT22;34357;51.948;6.132;2022-12-18T14:35:36;0.00;76.20
48579;DHT22;34357;51.948;6.132;2022-12-18T14:38:38;0.00;76.20
48579;DHT22;34357;51.948;6.132;2022-12-18T14:41:06;0.00;76.40
48579;DHT22;34357;51.948;6.132;2022-12-18T14:43:34;0.00;76.40
48579;DHT22;34357;51.948;6.132;2022-12-18T14:46:01;0.00;76.20
48579;DHT22;34357;51.948;6.132;2022-12-18T14:48:37;0.00;75.50
48579;DHT22;34357;51.948;6.132;2022-12-18T14:51:16;0.10;75.20
48579;DHT22;34357;51.948;6.132;2022-12-18T14:54:14;0.00;75.50
48579;DHT22;34357;51.948;6.132;2022-12-18T14:56:47;0.00;75.70
48579;DHT22;34357;51.948;6.132;2022-12-18T14:59:21;0.10;75.60
48579;DHT22;34357;51.948;6.132;2022-12-18T15:04:29;0.00;76.20
48579;DHT22;34357;51.948;6.132;2022-12-18T15:07:15;0.00;76.10
48579;DHT22;34357;51.948;6.132;2022-12-18T15:20:51;0.10;73.70
48579;DHT22;34357;51.948;6.132;2022-12-18T15:25:46;0.10;73.60
48579;DHT22;34357;51.948;6.132;2022-12-18T15:28:24;0.10;73.90
48579;DHT22;34357;51.948;6.132;2022-12-18T15:36:19;0.20;71.90
48579;DHT22;34357;51.948;6.132;2022-12-18T15:38:50;0.20;71.70
48579;DHT22;34357;51.948;6.132;2022-12-18T15:41:20;0.10;72.40
48579;DHT22;34357;51.948;6.132;2022-12-18T15:43:51;0.10;72.10
48579;DHT22;34357;51.948;6.132;2022-12-18T15:46:18;0.20;71.20
48579;DHT22;34357;51.948;6.132;2022-12-18T15:48:47;0.20;71.20
48579;DHT22;34357;51.948;6.132;2022-12-18T15:51:32;0.20;71.30
48579;DHT22;34357;51.948;6.132;2022-12-18T15:54:00;0.20;70.70
48579;DHT22;34357;51.948;6.132;2022-12-18T15:56:27;0.30;70.50
48579;DHT22;34357;51.948;6.132;2022-12-18T15:59:17;0.20;71.00
48579;DHT22;34357;51.948;6.132;2022-12-18T16:01:48;0.20;70.90
48579;DHT22;34357;51.948;6.132;2022-12-18T16:04:15;0.20;70.90
48579;DHT22;34357;51.948;6.132;2022-12-18T16:06:41;0.20;71.10
48579;DHT22;34357;51.948;6.132;2022-12-18T16:09:08;0.10;71.20
48579;DHT22;34357;51.948;6.132;2022-12-18T16:11:36;0.10;71.40
48579;DHT22;34357;51.948;6.132;2022-12-18T16:14:27;0.20;71.10
48579;DHT22;34357;51.948;6.132;2022-12-18T16:16:55;0.10;71.50
48579;DHT22;34357;51.948;6.132;2022-12-18T16:19:22;0.10;71.50
48579;DHT22;34357;51.948;6.132;2022-12-18T16:21:49;0.10;71.70
48579;DHT22;34357;51.948;6.132;2022-12-18T16:24:20;0.00;71.90
48579;DHT22;34357;51.948;6.132;2022-12-18T16:26:50;0.00;72.10
48579;DHT22;34357;51.948;6.132;2022-12-18T16:29:23;0.00;72.00
48579;DHT22;34357;51.948;6.132;2022-12-18T16:31:57;0.00;71.90
48579;DHT22;34357;51.948;6.132;2022-12-18T16:34:27;0.00;71.90
48579;DHT22;34357;51.948;6.132;2022-12-18T16:37:07;0.00;72.30
48579;DHT22;34357;51.948;6.132;2022-12-18T16:39:36;0.00;72.30
48579;DHT22;34357;51.948;6.132;2022-12-18T16:42:05;0.00;72.60
48579;DHT22;34357;51.948;6.132;2022-12-18T16:44:32;0.00;72.80
48579;DHT22;34357;51.948;6.132;2022-12-18T16:46:57;0.00;72.50
48579;DHT22;34357;51.948;6.132;2022-12-18T16:49:27;0.00;72.80
48579;DHT22;34357;51.948;6.132;2022-12-18T16:51:53;0.00;72.80
48579;DHT22;34357;51.948;6.132;2022-12-18T16:54:19;0.00;72.90
48579;DHT22;34357;51.948;6.132;2022-12-18T16:56:45;-0.10;73.00
48579;DHT22;34357;51.948;6.132;2022-12-18T16:59:14;-0.10;73.20
48579;DHT22;34357;51.948;6.132;2022-12-18T17:01:41;-0.10;73.60
48579;DHT22;34357;51.948;6.132;2022-12-18T17:04:07;-0.10;73.40
48579;DHT22;34357;51.948;6.132;2022-12-18T17:06:35;-0.10;73.60
48579;DHT22;34357;51.948;6.132;2022-12-18T17:09:09;-0.10;73.40
48579;DHT22;34357;51.948;6.132;2022-12-18T17:11:35;-0.10;73.60
48579;DHT22;34357;51.948;6.132;2022-12-18T17:14:14;-0.10;73.80
48579;DHT22;34357;51.948;6.132;2022-12-18T17:16:40;-0.10;73.90
48579;DHT22;34357;51.948;6.132;2022-12-18T17:19:06;-0.10;74.10
48579;DHT22;34357;51.948;6.132;2022-12-18T17:21:32;-0.20;74.40
48579;DHT22;34357;51.948;6.132;2022-12-18T17:24:01;-0.10;74.30
48579;DHT22;34357;51.948;6.132;2022-12-18T17:26:27;-0.20;74.60
48579;DHT22;34357;51.948;6.132;2022-12-18T17:28:55;-0.20;74.80
48579;DHT22;34357;51.948;6.132;2022-12-18T17:31:23;-0.20;74.90
48579;DHT22;34357;51.948;6.132;2022-12-18T17:33:49;-0.20;75.00
48579;DHT22;34357;51.948;6.132;2022-12-18T17:36:15;-0.20;75.30
48579;DHT22;34357;51.948;6.132;2022-12-18T17:38:41;-0.20;75.20
48579;DHT22;34357;51.948;6.132;2022-12-18T17:41:09;-0.30;75.60
48579;DHT22;34357;51.948;6.132;2022-12-18T17:43:36;-0.20;75.50
48579;DHT22;34357;51.948;6.132;2022-12-18T17:46:11;-0.30;75.60
48579;DHT22;34357;51.948;6.132;2022-12-18T17:48:38;-0.30;75.90
48579;DHT22;34357;51.948;6.132;2022-12-18T17:51:06;-0.30;75.80
48579;DHT22;34357;51.948;6.132;2022-12-18T17:53:32;-0.30;76.00
48579;DHT22;34357;51.948;6.132;2022-12-18T17:55:59;-0.30;76.10
48579;DHT22;34357;51.948;6.132;2022-12-18T17:58:31;-0.30;76.30
48579;DHT22;34357;51.948;6.132;2022-12-18T18:01:00;-0.30;76.30
48579;DHT22;34357;51.948;6.132;2022-12-18T18:03:25;-0.30;76.60
48579;DHT22;34357;51.948;6.132;2022-12-18T18:05:56;-0.30;76.70
48579;DHT22;34357;51.948;6.132;2022-12-18T18:08:22;-0.30;76.70
48579;DHT22;34357;51.948;6.132;2022-12-18T18:10:48;-0.30;76.80